Time;durP1;ratioP1;P1;durP2;ratioP2;P2;SDS_P1;SDS_P2;PMS_P1;PMS_P2;Temp;Humidity;BMP_temperature;BMP_pressure;BME280_temperature;BME280_humidity;BME280_pressure;Samples;Min_cycle;Max_cycle;Signal;HPM_P1;HPM_P2
2021/08/05 00:00:14;;;;;;;21.55;13.10;;;;;;;21.39;74.47;101142.91;1844166;78;21450;-64
2021/08/05 00:02:42;;;;;;;22.00;12.37;;;;;;;21.36;74.62;101140.50;1844268;78;21023;-64
2021/08/05 00:05:12;;;;;;;23.18;12.78;;;;;;;21.36;74.34;101135.98;1844048;78;21071;-65
2021/08/05 00:07:40;;;;;;;26.23;12.03;;;;;;;21.33;74.71;101135.37;1844091;78;21080;-64
2021/08/05 00:10:10;;;;;;;19.27;12.65;;;;;;;21.28;75.15;101132.19;1844127;78;21153;-64
2021/08/05 00:12:38;;;;;;;19.60;11.00;;;;;;;21.27;75.13;101132.69;1844255;78;21117;-64
2021/08/05 00:15:08;;;;;;;20.27;11.93;;;;;;;21.27;74.93;101135.86;1844161;78;21075;-64
2021/08/05 00:17:36;;;;;;;26.95;13.95;;;;;;;21.29;74.70;101142.79;1844070;78;21075;-65
2021/08/05 00:20:07;;;;;;;29.45;18.35;;;;;;;21.27;74.62;101136.70;1844071;78;21043;-64
2021/08/05 00:22:36;;;;;;;24.67;15.38;;;;;;;21.28;74.63;101133.53;1844231;78;21137;-64
2021/08/05 00:25:05;;;;;;;23.22;11.97;;;;;;;21.21;75.01;101129.16;1844050;78;21067;-64
2021/08/05 00:27:34;;;;;;;18.67;11.73;;;;;;;21.17;74.91;101121.85;1844104;76;21079;-64
2021/08/05 00:30:04;;;;;;;18.12;11.38;;;;;;;21.12;74.90;101125.36;1844111;78;21129;-64
2021/08/05 00:32:32;;;;;;;25.92;13.70;;;;;;;21.07;74.93;101126.69;1844040;78;21125;-65
2021/08/05 00:35:01;;;;;;;30.12;23.25;;;;;;;21.05;75.19;101117.44;1844087;78;21617;-64
2021/08/05 00:37:30;;;;;;;21.30;15.50;;;;;;;20.97;75.85;101122.52;1844316;78;21078;-64
2021/08/05 00:40:00;;;;;;;22.17;14.87;;;;;;;20.94;75.63;101114.73;1844129;78;21067;-64
2021/08/05 00:42:28;;;;;;;20.82;14.15;;;;;;;20.89;76.20;101119.09;1844518;78;21054;-64
2021/08/05 00:44:57;;;;;;;24.63;15.45;;;;;;;20.86;76.08;101111.31;1844102;78;21063;-64
2021/08/05 00:47:29;;;;;;;27.75;16.52;;;;;;;20.83;76.25;101108.37;1844189;78;21043;-64
2021/08/05 00:49:59;;;;;;;19.73;14.93;;;;;;;20.79;76.24;101110.92;1844609;78;21138;-64
2021/08/05 00:52:28;;;;;;;20.45;12.60;;;;;;;20.75;76.34;101105.44;1844340;78;21740;-64
2021/08/05 00:54:56;;;;;;;18.98;11.40;;;;;;;20.73;76.37;101098.02;1844241;78;21153;-64
2021/08/05 00:57:25;;;;;;;22.13;12.05;;;;;;;20.71;76.16;101093.27;1844099;78;21047;-65
2021/08/05 00:59:54;;;;;;;22.80;11.60;;;;;;;20.65;76.63;101092.88;1844219;78;21075;-64
2021/08/05 01:02:27;;;;;;;17.90;11.78;;;;;;;20.60;76.74;101095.85;1844204;78;21091;-64
2021/08/05 01:04:57;;;;;;;23.67;13.10;;;;;;;20.59;76.93;101096.84;1844427;78;21067;-64
2021/08/05 01:07:32;;;;;;;27.70;15.63;;;;;;;20.58;77.06;101100.47;1844205;78;21112;-64
2021/08/05 01:10:13;;;;;;;25.92;16.97;;;;;;;20.60;77.03;101103.88;1842174;78;21454;-64
2021/08/05 01:13:04;;;;;;;24.23;17.00;;;;;;;20.62;76.71;101108.20;1843302;78;21505;-64
2021/08/05 01:15:33;;;;;;;23.15;16.27;;;;;;;20.60;76.87;101115.48;1844203;78;21078;-64
2021/08/05 01:18:10;;;;;;;22.02;14.35;;;;;;;20.56;77.14;101109.09;1844316;78;21528;-64
2021/08/05 01:20:44;;;;;;;22.55;13.68;;;;;;;20.54;77.13;101115.05;1844275;78;21130;-64
2021/08/05 01:23:32;;;;;;;24.00;13.00;;;;;;;20.53;76.93;101113.36;1844201;78;21135;-64
2021/08/05 01:26:07;;;;;;;20.52;13.25;;;;;;;20.53;76.78;101114.70;1844064;78;21141;-64
2021/08/05 01:28:38;;;;;;;24.80;15.63;;;;;;;20.52;76.54;101115.66;1840861;77;21526;-64
2021/08/05 01:31:08;;;;;;;21.77;12.98;;;;;;;20.49;76.64;101108.73;1838016;78;21170;-64
2021/08/05 01:33:39;;;;;;;24.35;14.35;;;;;;;20.49;76.71;101106.52;1838262;78;21044;-64
2021/08/05 01:36:08;;;;;;;20.37;12.70;;;;;;;20.50;76.64;101106.89;1838034;78;21478;-64
2021/08/05 01:38:39;;;;;;;20.62;12.28;;;;;;;20.50;76.64;101113.58;1838157;78;21063;-64
2021/08/05 01:41:10;;;;;;;20.30;13.00;;;;;;;20.50;76.81;101108.23;1837915;78;21059;-64
2021/08/05 01:43:40;;;;;;;19.50;11.63;;;;;;;20.53;76.61;101106.67;1838134;78;21070;-64
2021/08/05 01:46:09;;;;;;;18.23;11.55;;;;;;;20.55;76.35;101107.41;1837979;78;21117;-64
2021/08/05 01:48:39;;;;;;;20.90;12.50;;;;;;;20.55;76.22;101109.59;1838104;78;21071;-63
2021/08/05 01:51:08;;;;;;;23.67;14.18;;;;;;;20.54;76.41;101112.38;1838186;78;21151;-64
2021/08/05 01:53:38;;;;;;;24.63;15.83;;;;;;;20.53;76.40;101112.03;1837985;78;21513;-64
2021/08/05 01:56:07;;;;;;;24.15;14.73;;;;;;;20.52;76.44;101114.31;1837979;78;21071;-63
2021/08/05 01:58:36;;;;;;;23.40;16.12;;;;;;;20.52;76.30;101118.33;1838005;78;21125;-63
2021/08/05 02:01:05;;;;;;;27.60;17.23;;;;;;;20.48;76.41;101118.20;1838184;78;21072;-63
2021/08/05 02:03:34;;;;;;;24.10;14.35;;;;;;;20.42;76.81;101115.50;1838149;78;21043;-64
2021/08/05 02:06:12;;;;;;;23.32;13.28;;;;;;;20.39;77.05;101116.56;1838057;78;21091;-64
2021/08/05 02:08:47;;;;;;;23.98;12.68;;;;;;;20.36;77.13;101116.81;1838061;78;21080;-64
2021/08/05 02:11:17;;;;;;;23.65;12.80;;;;;;;20.37;76.96;101123.00;1837200;78;21544;-64
2021/08/05 02:13:47;;;;;;;23.10;12.65;;;;;;;20.40;76.74;101128.14;1837945;78;21576;-64
2021/08/05 02:16:17;;;;;;;24.40;14.87;;;;;;;20.41;76.63;101128.48;1838106;78;21125;-64
2021/08/05 02:18:49;;;;;;;29.87;17.70;;;;;;;20.41;76.66;101125.81;1837910;78;21121;-64
2021/08/05 02:21:20;;;;;;;22.30;16.37;;;;;;;20.41;76.67;101128.00;1838215;78;21044;-64
2021/08/05 02:23:51;;;;;;;27.15;16.32;;;;;;;20.37;76.86;101129.69;1837966;78;21180;-64
2021/08/05 02:26:21;;;;;;;23.83;14.98;;;;;;;20.34;76.86;101125.41;1838019;78;21035;-64
2021/08/05 02:28:51;;;;;;;26.82;15.32;;;;;;;20.33;76.73;101131.73;1838002;77;21096;-64
2021/08/05 02:31:21;;;;;;;25.70;15.32;;;;;;;20.31;76.58;101124.31;1837896;78;21138;-64
2021/08/05 02:33:51;;;;;;;30.68;16.73;;;;;;;20.30;76.45;101127.09;1838019;78;21594;-64
2021/08/05 02:36:20;;;;;;;25.23;15.68;;;;;;;20.31;76.49;101133.67;1838034;78;21039;-64
2021/08/05 02:38:50;;;;;;;23.50;15.78;;;;;;;20.31;76.43;101129.66;1838081;78;21132;-64
2021/08/05 02:41:21;;;;;;;30.85;18.62;;;;;;;20.33;76.42;101126.39;1837933;78;21623;-64
2021/08/05 02:43:50;;;;;;;24.57;14.63;;;;;;;20.35;76.66;101128.95;1838158;78;21051;-64
2021/08/05 02:46:19;;;;;;;21.90;12.37;;;;;;;20.35;76.64;101129.80;1838006;78;21110;-64
2021/08/05 02:48:49;;;;;;;19.35;12.23;;;;;;;20.36;76.59;101136.87;1837998;78;21482;-64
2021/08/05 02:51:19;;;;;;;23.32;13.18;;;;;;;20.38;76.57;101128.25;1838135;78;21514;-64
2021/08/05 02:53:50;;;;;;;19.45;13.40;;;;;;;20.37;76.83;101129.20;1838220;78;21092;-64
2021/08/05 02:56:20;;;;;;;24.63;16.93;;;;;;;20.40;76.58;101137.00;1838030;78;21257;-64
2021/08/05 02:58:49;;;;;;;27.30;16.90;;;;;;;20.46;76.44;101142.88;1837993;78;21532;-65
2021/08/05 03:01:22;;;;;;;34.63;21.42;;;;;;;20.48;76.31;101140.44;1838129;78;21475;-65
2021/08/05 03:03:52;;;;;;;32.65;20.75;;;;;;;20.54;76.18;101141.30;1838074;78;21043;-65
2021/08/05 03:06:31;;;;;;;30.08;17.80;;;;;;;20.58;76.19;101144.61;1838113;78;21075;-64
2021/08/05 03:09:00;;;;;;;31.30;17.57;;;;;;;20.64;76.11;101137.52;1837977;78;21099;-64
2021/08/05 03:11:28;;;;;;;23.40;14.65;;;;;;;20.68;76.11;101133.62;1837981;78;21083;-65
2021/08/05 03:13:57;;;;;;;26.35;12.80;;;;;;;20.73;76.06;101138.16;1837991;78;21118;-65
2021/08/05 03:16:26;;;;;;;21.65;12.85;;;;;;;20.81;75.91;101135.73;1838021;78;21048;-64
2021/08/05 03:18:55;;;;;;;23.98;11.95;;;;;;;20.93;75.58;101132.59;1837972;77;21051;-65
2021/08/05 03:21:23;;;;;;;16.52;11.22;;;;;;;21.01;75.27;101130.70;1837953;77;21023;-64
2021/08/05 03:23:52;;;;;;;23.90;12.50;;;;;;;21.07;74.98;101126.20;1837986;78;21023;-63
2021/08/05 03:26:21;;;;;;;22.17;14.28;;;;;;;21.13;74.71;101127.05;1837990;78;21047;-64
2021/08/05 03:28:50;;;;;;;22.87;17.00;;;;;;;21.17;74.39;101133.02;1838028;76;21150;-69
2021/08/05 03:31:19;;;;;;;31.02;21.23;;;;;;;21.17;74.17;101127.67;1837966;78;21052;-67
2021/08/05 03:33:48;;;;;;;26.75;23.02;;;;;;;21.17;74.08;101130.34;1837920;78;21051;-68
2021/08/05 03:36:17;;;;;;;26.57;21.90;;;;;;;21.23;74.15;101126.34;1837986;78;21067;-67
2021/08/05 03:38:45;;;;;;;26.33;19.20;;;;;;;21.36;74.18;101131.13;1838001;78;21083;-67
2021/08/05 03:41:16;;;;;;;24.55;16.05;;;;;;;21.52;74.15;101130.28;1838093;78;21514;-67
2021/08/05 03:44:04;;;;;;;21.55;16.17;;;;;;;21.67;73.79;101128.25;1926049;74;21143;-65
2021/08/05 03:46:33;;;;;;;18.85;15.05;;;;;;;21.84;73.40;101132.24;1926148;74;21075;-65
2021/08/05 03:49:02;;;;;;;19.27;13.68;;;;;;;21.91;72.94;101133.45;1926091;74;21040;-65
2021/08/05 03:51:31;;;;;;;19.75;11.65;;;;;;;22.08;72.94;101133.92;1926168;74;21014;-65
2021/08/05 03:53:59;;;;;;;14.28;10.10;;;;;;;22.27;72.70;101136.81;1926158;74;21480;-64
2021/08/05 03:56:28;;;;;;;20.77;10.25;;;;;;;22.40;72.16;101129.95;1926260;74;21156;-65
2021/08/05 03:58:57;;;;;;;14.93;9.63;;;;;;;22.49;71.39;101125.66;1926137;74;21121;-64
2021/08/05 04:01:26;;;;;;;21.65;9.90;;;;;;;22.60;71.01;101128.29;1926147;74;21135;-64
2021/08/05 04:03:54;;;;;;;15.95;10.70;;;;;;;22.68;70.43;101121.77;1926254;74;21046;-65
2021/08/05 04:06:23;;;;;;;17.23;10.32;;;;;;;22.70;70.18;101123.87;1926139;74;21035;-65
2021/08/05 04:08:52;;;;;;;15.00;10.78;;;;;;;22.69;70.02;101123.49;1926120;74;21113;-67
2021/08/05 04:11:21;;;;;;;17.73;11.40;;;;;;;22.86;69.79;101117.19;1926050;74;21066;-68
2021/08/05 04:13:50;;;;;;;29.10;12.10;;;;;;;23.06;69.41;101116.86;1926239;74;21014;-68
2021/08/05 04:16:20;;;;;;;18.98;10.82;;;;;;;23.31;68.98;101110.19;1926527;74;21039;-67
2021/08/05 04:18:49;;;;;;;34.15;18.05;;;;;;;23.59;68.27;101113.14;1926341;74;21094;-67
2021/08/05 04:21:18;;;;;;;21.48;13.93;;;;;;;23.96;67.99;101111.23;1926238;74;21112;-67
2021/08/05 04:23:47;;;;;;;25.00;12.05;;;;;;;24.30;67.17;101110.38;1926146;74;21054;-68
2021/08/05 04:26:15;;;;;;;24.10;12.82;;;;;;;24.63;66.45;101109.65;1926384;74;21174;-69
2021/08/05 04:28:44;;;;;;;23.57;10.38;;;;;;;24.89;65.38;101115.28;1926254;74;21014;-68
2021/08/05 04:31:13;;;;;;;18.98;10.43;;;;;;;25.16;64.83;101115.88;1926309;74;21042;-68
2021/08/05 04:33:41;;;;;;;22.65;12.18;;;;;;;25.38;63.67;101115.20;1926258;74;21133;-68
2021/08/05 04:36:10;;;;;;;19.70;11.22;;;;;;;25.62;63.31;101118.73;1926156;74;21547;-69
2021/08/05 04:38:39;;;;;;;16.95;10.20;;;;;;;25.88;62.92;101115.33;1926333;74;21085;-68
2021/08/05 04:41:07;;;;;;;16.90;9.65;;;;;;;26.10;62.20;101112.23;1926257;74;21035;-68
2021/08/05 04:43:36;;;;;;;18.73;9.25;;;;;;;26.37;61.68;101112.69;1917112;74;21051;-68
2021/08/05 04:46:05;;;;;;;16.02;9.30;;;;;;;26.61;61.11;101103.62;1910609;75;21075;-68
2021/08/05 04:48:33;;;;;;;16.55;9.38;;;;;;;26.84;60.43;101103.99;1910550;75;21482;-69
2021/08/05 04:51:02;;;;;;;17.77;9.60;;;;;;;27.10;59.77;101100.78;1910571;75;21196;-67
2021/08/05 04:53:31;;;;;;;20.17;9.95;;;;;;;27.32;59.19;101092.66;1910680;75;21043;-67
2021/08/05 04:56:00;;;;;;;19.12;10.53;;;;;;;27.64;58.90;101101.92;1910610;75;21079;-67
2021/08/05 04:58:28;;;;;;;21.60;12.65;;;;;;;27.97;58.26;101099.88;1910649;75;21043;-68
2021/08/05 05:00:57;;;;;;;20.15;12.88;;;;;;;28.21;57.16;101099.92;1910629;75;21117;-68
2021/08/05 05:03:26;;;;;;;22.25;13.75;;;;;;;28.40;56.52;101096.05;1910464;75;21067;-68
2021/08/05 05:05:56;;;;;;;22.93;13.53;;;;;;;28.64;56.08;101096.62;1910685;75;21064;-68
2021/08/05 05:08:25;;;;;;;22.05;13.70;;;;;;;28.86;55.66;101097.75;1910721;75;21118;-68
2021/08/05 05:10:56;;;;;;;22.82;13.30;;;;;;;29.22;55.24;101093.84;1910592;75;21059;-68
2021/08/05 05:13:25;;;;;;;27.05;13.22;;;;;;;29.42;54.19;101092.42;1910707;75;21039;-68
2021/08/05 05:15:54;;;;;;;19.67;12.47;;;;;;;29.55;53.74;101089.16;1910467;75;21035;-68
2021/08/05 05:18:25;;;;;;;20.92;11.38;;;;;;;29.76;53.08;101093.16;1910658;75;21047;-68
2021/08/05 05:20:54;;;;;;;27.40;12.15;;;;;;;29.94;52.38;101092.89;1910734;75;21015;-68
2021/08/05 05:23:23;;;;;;;22.27;14.45;;;;;;;30.21;52.22;101086.95;1910596;75;21105;-68
2021/08/05 05:25:52;;;;;;;21.07;11.00;;;;;;;30.38;51.03;101083.63;1910734;75;21130;-68
2021/08/05 05:28:21;;;;;;;19.05;10.93;;;;;;;30.35;50.26;101085.33;1910554;75;21047;-69
2021/08/05 05:30:50;;;;;;;14.73;8.45;;;;;;;30.55;50.25;101083.48;1910560;75;21164;-68
2021/08/05 05:33:19;;;;;;;14.50;8.68;;;;;;;30.88;49.23;101090.82;1910710;75;21039;-68
2021/08/05 05:35:48;;;;;;;17.75;8.28;;;;;;;31.26;48.76;101089.94;1910678;75;21036;-68
2021/08/05 05:38:17;;;;;;;12.43;7.90;;;;;;;31.50;48.24;101081.53;1910613;75;21498;-68
2021/08/05 05:40:46;;;;;;;15.32;7.72;;;;;;;31.71;47.15;101083.98;1910716;75;21113;-70
2021/08/05 05:43:15;;;;;;;16.67;8.03;;;;;;;31.92;47.14;101084.52;1910275;75;21556;-69
2021/08/05 05:45:44;;;;;;;14.95;8.33;;;;;;;32.04;46.13;101084.87;1908898;75;21419;-68
2021/08/05 05:48:14;;;;;;;13.22;7.80;;;;;;;32.05;44.90;101082.50;1908677;75;21466;-68
2021/08/05 05:50:43;;;;;;;18.65;7.90;;;;;;;31.99;45.08;101080.52;1908758;75;21485;-68
2021/08/05 05:53:12;;;;;;;13.90;7.87;;;;;;;32.23;45.10;101073.36;1908658;75;21131;-69
2021/08/05 05:55:40;;;;;;;15.65;8.60;;;;;;;32.56;45.22;101071.98;1908621;75;21497;-68
2021/08/05 05:58:09;;;;;;;14.00;7.40;;;;;;;32.83;44.57;101068.95;1908793;75;21057;-68
2021/08/05 06:00:38;;;;;;;12.90;7.22;;;;;;;32.90;43.24;101067.12;1908810;75;21011;-68
2021/08/05 06:03:07;;;;;;;17.45;7.58;;;;;;;33.03;42.61;101059.55;1908715;75;21120;-68
2021/08/05 06:05:36;;;;;;;13.13;7.60;;;;;;;33.22;42.62;101058.03;1908675;75;21063;-68
2021/08/05 06:08:05;;;;;;;14.43;7.50;;;;;;;33.37;42.14;101055.99;1908573;75;21124;-68
2021/08/05 06:10:34;;;;;;;10.23;6.85;;;;;;;33.68;41.79;101057.41;1908653;75;21129;-69
2021/08/05 06:13:03;;;;;;;15.43;8.28;;;;;;;33.96;41.42;101053.70;1908770;75;21105;-68
2021/08/05 06:15:32;;;;;;;22.67;14.73;;;;;;;34.22;40.91;101056.50;1908786;75;21047;-68
2021/08/05 06:18:01;;;;;;;12.75;7.67;;;;;;;34.50;40.57;101032.22;1908697;75;21062;-68
2021/08/05 06:20:29;;;;;;;8.28;7.03;;;;;;;34.72;38.91;101055.27;1908575;75;21043;-69
2021/08/05 06:22:58;;;;;;;19.05;14.13;;;;;;;34.72;38.91;101055.27;1908690;75;21031;-68
2021/08/05 06:25:27;;;;;;;14.40;7.47;;;;;;;34.99;39.52;101061.01;1908693;75;21035;-68
2021/08/05 06:27:56;;;;;;;16.20;8.85;;;;;;;35.16;39.00;101042.76;1908654;75;21109;-68
2021/08/05 06:30:25;;;;;;;13.60;8.15;;;;;;;35.35;38.92;101051.44;1908725;75;21149;-68
2021/08/05 06:32:54;;;;;;;15.63;9.10;;;;;;;35.65;38.38;101057.73;1908582;75;21105;-69
2021/08/05 06:35:22;;;;;;;20.48;11.12;;;;;;;35.68;37.72;101057.30;1908722;75;21113;-68
2021/08/05 06:37:51;;;;;;;16.95;9.28;;;;;;;35.83;37.28;101054.30;1908586;75;21067;-68
2021/08/05 06:40:20;;;;;;;14.23;9.20;;;;;;;36.06;37.19;101059.22;1908659;75;21164;-68
2021/08/05 06:42:49;;;;;;;13.80;8.25;;;;;;;36.24;36.83;101052.16;1908812;75;21055;-68
2021/08/05 06:45:18;;;;;;;11.55;8.18;;;;;;;36.46;36.84;101053.44;1908752;75;21063;-68
2021/08/05 06:47:49;;;;;;;15.20;7.97;;;;;;;36.64;36.07;101048.54;1908746;75;21067;-68
2021/08/05 06:50:18;;;;;;;13.55;7.83;;;;;;;36.81;35.53;101037.84;1908694;75;21039;-68
2021/08/05 06:52:47;;;;;;;15.78;7.95;;;;;;;36.90;34.65;101042.52;1908669;75;21035;-68
2021/08/05 06:55:16;;;;;;;10.28;7.17;;;;;;;37.00;34.20;101033.73;1908625;75;21063;-68
2021/08/05 06:57:45;;;;;;;11.43;6.70;;;;;;;36.95;33.38;101036.36;1908751;75;21129;-68
2021/08/05 07:00:15;;;;;;;13.05;7.40;;;;;;;36.88;33.52;101025.44;1908581;75;21181;-68
2021/08/05 07:02:44;;;;;;;13.45;7.47;;;;;;;37.05;33.64;101029.78;1908749;75;21036;-67
2021/08/05 07:05:13;;;;;;;13.22;9.40;;;;;;;37.13;33.83;101025.89;1908674;75;21039;-68
2021/08/05 07:07:42;;;;;;;12.15;8.00;;;;;;;37.43;33.73;101024.61;1908681;75;21067;-68
2021/08/05 07:10:12;;;;;;;10.72;7.60;;;;;;;37.65;33.52;101023.05;1908619;75;21099;-67
2021/08/05 07:12:40;;;;;;;17.60;7.53;;;;;;;37.82;33.59;101030.64;1908539;75;21086;-68
2021/08/05 07:15:10;;;;;;;10.98;7.78;;;;;;;37.91;32.61;101030.61;1908669;75;21506;-67
2021/08/05 07:17:48;;;;;;;14.58;7.90;;;;;;;37.80;32.32;101033.62;1908672;75;21047;-68
2021/08/05 07:20:17;;;;;;;13.65;7.87;;;;;;;38.02;32.77;101033.09;1908139;75;21058;-68
2021/08/05 07:22:46;;;;;;;12.10;7.40;;;;;;;38.17;32.27;101029.92;1908746;75;21015;-68
2021/08/05 07:25:16;;;;;;;13.68;7.62;;;;;;;38.09;31.79;101024.75;1908534;75;21763;-68
2021/08/05 07:27:47;;;;;;;15.63;7.40;;;;;;;38.10;32.17;101027.27;1908644;75;21125;-68
2021/08/05 07:30:22;;;;;;;14.45;7.72;;;;;;;38.26;31.97;101029.87;1908568;75;21067;-68
2021/08/05 07:32:49;;;;;;;;;;;;;;;38.49;32.02;101035.91;1911119;75;21490;-67
2021/08/05 07:35:19;;;;;;;13.83;8.13;;;;;;;38.65;31.31;101026.14;1906685;75;20113;-68
2021/08/05 07:37:48;;;;;;;13.90;7.80;;;;;;;38.80;31.57;101027.86;1908522;75;21136;-68
2021/08/05 07:40:21;;;;;;;14.07;7.30;;;;;;;38.96;30.50;101018.58;1908705;75;21017;-67
2021/08/05 07:42:47;;;;;;;18.92;7.40;;;;;;;39.09;30.62;101022.47;1908267;75;21015;-67
2021/08/05 07:45:16;;;;;;;16.50;7.37;;;;;;;39.18;30.26;101021.00;1908539;75;21052;-67
2021/08/05 07:47:45;;;;;;;13.43;8.05;;;;;;;39.17;30.33;101015.73;1908597;75;21059;-67
2021/08/05 07:50:14;;;;;;;15.03;7.90;;;;;;;38.98;29.68;101015.88;1908475;75;21055;-68
2021/08/05 07:52:43;;;;;;;15.32;7.55;;;;;;;38.71;29.73;101012.79;1908638;75;21489;-67
2021/08/05 07:55:12;;;;;;;10.28;7.58;;;;;;;38.49;29.45;101010.33;1908628;75;21219;-67
2021/08/05 07:57:41;;;;;;;16.73;7.87;;;;;;;38.23;29.74;101013.30;1902069;75;21125;-66
2021/08/05 08:00:13;;;;;;;12.00;7.50;;;;;;;38.08;29.89;101001.89;1892954;76;21100;-66
2021/08/05 08:02:41;;;;;;;15.55;7.62;;;;;;;38.04;30.08;100996.03;1893112;76;21487;-67
2021/08/05 08:05:14;;;;;;;10.25;7.33;;;;;;;38.29;30.09;100996.92;1893263;75;21010;-66
2021/08/05 08:07:44;;;;;;;12.00;8.33;;;;;;;38.65;29.79;100997.26;1893519;76;21108;-67
2021/08/05 08:10:15;;;;;;;12.37;6.85;;;;;;;38.60;29.37;100997.14;1893313;76;21032;-66
2021/08/05 08:12:44;;;;;;;11.18;7.25;;;;;;;38.59;28.92;100989.98;1893437;76;21500;-66
2021/08/05 08:15:16;;;;;;;9.05;6.83;;;;;;;38.81;28.64;100990.19;1893526;76;21571;-67
2021/08/05 08:17:45;;;;;;;16.40;7.10;;;;;;;38.81;28.17;100988.27;1893404;76;21034;-67
2021/08/05 08:20:16;;;;;;;13.53;7.08;;;;;;;38.98;28.23;100976.50;1893407;75;21562;-66
2021/08/05 08:22:45;;;;;;;11.95;6.70;;;;;;;39.10;27.92;100982.82;1893311;76;21034;-67
2021/08/05 08:25:15;;;;;;;14.53;6.50;;;;;;;39.26;27.83;100981.77;1893420;76;21006;-66
2021/08/05 08:27:44;;;;;;;11.05;6.60;;;;;;;39.45;27.64;100980.50;1893057;76;21030;-67
2021/08/05 08:30:15;;;;;;;12.53;6.83;;;;;;;39.46;27.41;100965.66;1892549;76;21135;-67
2021/08/05 08:32:47;;;;;;;22.45;6.87;;;;;;;39.55;27.76;100977.13;1893204;76;21034;-67
2021/08/05 08:35:16;;;;;;;12.20;6.65;;;;;;;39.71;27.30;100969.95;1893415;76;21026;-67
2021/08/05 08:37:47;;;;;;;13.08;6.67;;;;;;;40.00;27.27;100972.69;1893354;76;21038;-67
2021/08/05 08:40:17;;;;;;;15.23;8.30;;;;;;;39.84;27.00;100966.89;1893180;76;21515;-67
2021/08/05 08:42:46;;;;;;;10.78;7.50;;;;;;;39.91;27.11;100964.81;1893241;76;21026;-67
2021/08/05 08:45:18;;;;;;;11.95;6.60;;;;;;;40.07;27.30;100965.91;1893143;75;21050;-67
2021/08/05 08:47:55;;;;;;;13.22;8.10;;;;;;;39.94;27.16;100958.81;1893204;76;21578;-67
2021/08/05 08:50:35;;;;;;;12.50;7.12;;;;;;;39.83;27.51;100957.49;1893197;76;21081;-67
2021/08/05 08:53:14;;;;;;;9.43;7.03;;;;;;;40.02;27.59;100959.48;1893143;76;21545;-67
2021/08/05 08:55:45;;;;;;;13.03;7.30;;;;;;;40.32;27.09;100955.83;1893142;76;21081;-67
2021/08/05 08:58:16;;;;;;;18.10;7.87;;;;;;;40.35;26.57;100952.30;1893294;76;21042;-67
2021/08/05 09:00:47;;;;;;;17.77;7.00;;;;;;;40.08;26.61;100955.70;1893464;76;21556;-67
2021/08/05 09:03:20;;;;;;;16.12;6.67;;;;;;;40.03;26.54;100953.72;1893087;76;21018;-67
2021/08/05 09:05:52;;;;;;;15.38;6.85;;;;;;;40.07;26.67;100954.05;1893028;76;21129;-67
2021/08/05 09:08:25;;;;;;;11.80;6.58;;;;;;;39.92;26.62;100956.85;1893322;76;21084;-67
2021/08/05 09:10:59;;;;;;;10.08;6.65;;;;;;;40.11;26.69;100953.28;1893355;76;21124;-67
2021/08/05 09:13:32;;;;;;;11.50;6.55;;;;;;;39.99;25.86;100945.67;1893146;75;21065;-68
2021/08/05 09:16:05;;;;;;;13.28;6.80;;;;;;;40.17;26.16;100948.68;1893492;76;21050;-67
2021/08/05 09:18:42;;;;;;;10.95;5.90;;;;;;;40.16;26.77;100948.41;1889642;76;21136;-67
2021/08/05 09:21:23;;;;;;;9.50;6.22;;;;;;;39.97;26.23;100942.33;1893538;76;21105;-67
2021/08/05 09:24:11;;;;;;;11.55;7.20;;;;;;;39.98;26.64;100941.78;1893357;76;21065;-67
2021/08/05 09:26:46;;;;;;;9.13;5.72;;;;;;;40.21;27.07;100931.94;1892287;76;21563;-69
2021/08/05 09:29:22;;;;;;;15.50;7.92;;;;;;;40.42;26.46;100933.64;1892510;76;21485;-67
2021/08/05 09:31:58;;;;;;;9.90;6.17;;;;;;;40.24;26.32;100925.07;1893284;76;21543;-67
2021/08/05 09:34:36;;;;;;;14.85;8.33;;;;;;;40.45;25.86;100913.80;1893328;76;21522;-67
2021/08/05 09:37:11;;;;;;;11.63;6.78;;;;;;;40.57;25.75;100914.52;1893338;76;21123;-67
2021/08/05 09:39:45;;;;;;;8.38;6.10;;;;;;;40.49;25.34;100912.22;1893324;76;21033;-67
2021/08/05 09:42:14;;;;;;;12.85;6.58;;;;;;;40.38;24.69;100911.77;1893323;75;21038;-68
2021/08/05 09:44:48;;;;;;;10.48;5.85;;;;;;;40.40;25.21;100906.86;1893261;76;21464;-68
2021/08/05 09:47:19;;;;;;;15.08;6.60;;;;;;;40.28;25.28;100911.88;1893274;76;21465;-67
2021/08/05 09:49:50;;;;;;;11.80;6.05;;;;;;;39.98;25.36;100910.08;1893610;76;21053;-67
2021/08/05 09:52:29;;;;;;;;;;;;;;;39.76;25.49;100909.41;1896113;75;21061;-67
2021/08/05 09:55:03;;;;;;;13.40;6.33;;;;;;;39.77;26.16;100913.86;1893250;74;20102;-68
2021/08/05 09:57:34;;;;;;;11.75;6.28;;;;;;;39.73;25.49;100912.66;1893368;76;21491;-68
2021/08/05 10:00:17;;;;;;;9.30;6.03;;;;;;;39.80;25.80;100906.44;1893454;76;21100;-68
2021/08/05 10:02:51;;;;;;;8.83;6.00;;;;;;;39.75;25.30;100901.70;1893342;76;21476;-68
2021/08/05 10:05:24;;;;;;;12.88;6.65;;;;;;;39.41;25.84;100898.05;1893353;76;21037;-68
2021/08/05 10:08:01;;;;;;;15.43;6.83;;;;;;;39.32;26.42;100899.53;1893291;76;21034;-68
2021/08/05 10:10:52;;;;;;;11.28;5.92;;;;;;;39.32;26.60;100894.85;1893409;76;21046;-68
2021/08/05 10:13:34;;;;;;;15.13;7.00;;;;;;;39.22;26.31;100894.69;1893188;75;21038;-67
2021/08/05 10:16:03;;;;;;;10.00;6.40;;;;;;;39.28;27.06;100895.06;1893559;76;21528;-68
2021/08/05 10:18:35;;;;;;;11.68;6.33;;;;;;;39.39;27.37;100893.33;1893471;74;21081;-67
2021/08/05 10:21:06;;;;;;;11.03;6.42;;;;;;;39.28;27.26;100895.61;1893494;76;21468;-67
2021/08/05 10:23:38;;;;;;;15.00;5.08;;;;;;;39.38;26.95;100893.02;1893474;76;21500;-67
2021/08/05 10:26:09;;;;;;;9.33;5.50;;;;;;;39.30;26.62;100888.77;1893625;76;21025;-67
2021/08/05 10:28:39;;;;;;;13.58;6.20;;;;;;;38.88;26.57;100888.20;1893196;76;21500;-67
2021/08/05 10:31:14;;;;;;;7.42;5.53;;;;;;;38.78;27.01;100887.47;1893632;76;21092;-67
2021/08/05 10:33:43;;;;;;;11.15;6.78;;;;;;;38.72;27.54;100887.91;1892916;76;21042;-67
2021/08/05 10:36:12;;;;;;;8.38;5.72;;;;;;;38.42;27.89;100882.03;1893070;76;21062;-67
2021/08/05 10:38:41;;;;;;;12.43;6.15;;;;;;;38.15;27.53;100873.45;1893312;76;21458;-67
2021/08/05 10:41:10;;;;;;;11.60;6.35;;;;;;;37.95;28.11;100877.89;1893180;76;21476;-68
2021/08/05 10:43:39;;;;;;;7.75;6.05;;;;;;;37.73;28.40;100872.70;1893293;76;21088;-67
2021/08/05 10:46:09;;;;;;;10.15;5.95;;;;;;;37.46;29.07;100867.59;1893340;76;21119;-67
2021/08/05 10:48:38;;;;;;;12.60;6.45;;;;;;;37.36;28.79;100866.80;1874425;75;21141;-67
2021/08/05 10:51:11;;;;;;;12.78;7.00;;;;;;;37.26;29.58;100866.00;1871514;77;21031;-67
2021/08/05 10:53:44;;;;;;;12.55;5.92;;;;;;;37.21;30.42;100859.00;1871320;76;21132;-67
2021/08/05 10:56:31;;;;;;;8.75;6.10;;;;;;;37.21;30.10;100865.86;1871453;77;21517;-67
2021/08/05 10:59:07;;;;;;;8.53;5.62;;;;;;;37.12;30.65;100861.74;1871543;77;21063;-67
2021/08/05 11:01:54;;;;;;;8.95;6.58;;;;;;;37.09;30.74;100852.59;1871512;77;21035;-67
2021/08/05 11:04:45;;;;;;;13.20;6.90;;;;;;;37.00;30.70;100855.36;1871669;77;21043;-67
2021/08/05 11:07:25;;;;;;;14.73;7.08;;;;;;;36.83;30.63;100849.14;1871534;76;21030;-66
2021/08/05 11:10:16;;;;;;;10.13;7.28;;;;;;;36.78;31.55;100849.02;1871568;77;21013;-67
2021/08/05 11:12:57;;;;;;;14.60;5.95;;;;;;;36.84;31.49;100846.72;1871479;77;21007;-67
2021/08/05 11:15:33;;;;;;;8.83;6.55;;;;;;;36.85;31.70;100840.17;1871664;77;21477;-66
2021/08/05 11:18:16;;;;;;;13.72;5.65;;;;;;;36.73;31.95;100832.41;1871593;77;21011;-67
2021/08/05 11:21:00;;;;;;;9.65;6.42;;;;;;;36.69;31.62;100836.70;1871397;77;21031;-67
2021/08/05 11:23:35;;;;;;;9.60;5.30;;;;;;;36.58;31.66;100822.36;1871576;77;21091;-67
2021/08/05 11:26:07;;;;;;;15.13;5.75;;;;;;;36.40;31.26;100825.41;1871532;77;21035;-67
2021/08/05 11:28:47;;;;;;;11.40;5.92;;;;;;;36.12;31.34;100822.63;1871607;77;21575;-67
2021/08/05 11:31:28;;;;;;;10.93;5.20;;;;;;;36.03;31.34;100821.25;1871383;77;21137;-67